Bei Facebook empfehlenBei Twitter postenGoogle plusPinterest

Das Wetter im Erzgebirge am 22.01.2017

Wetter und Klima am 22.01.2017 Holzhau im Erzgebirge (630m ü.NN)
Letzte gemessene Temperatur und Uhrzeit der Messung23:45:00 Uhr-5.70 °C
Temperatur (Maximum / Höchstwert) und Uhrzeit der Messung14:00:00 Uhr2.30 °C
Temperatur (Minimum / Tiefstwert) und Uhrzeit der Messung23:30:00-5.80 °C
Errechneter Absolutwert der Temperaturschwankungen zwischen Tmin und Tmax des Tages8.10 K
Errechnete Tagesmitteltemperatur-2.50000 °C
Gesamt - Niederschlag des Tages (in flüssiger Form)0.00 Liter / m²
Luftdruck (Maximum / Höchstwert) und Zeitpunkt der Messung00:00:00 Uhr1024.80 hPa
Luftdruck (Minimum / Tiefstwert) und Zeitpunkt der Messung20:45:00 Uhr1019.40 hPa
Errechneter Absolutwert der Luftdruckschwankungen des Tages5.40 hPa
Höchste gemessene Windgeschwindigkeit und Uhrzeit der Messung02:15:00 Uhr16.92 km/h
Errechnete Windhäufigkeit in Relation zu den Messwerten des Tages68.75000 %
Niedrigste Windkühle (Windchill) und Zeitpunkt der Messung18:30:00 Uhr-10.60 °C
Taupunkt (Maximum / Höchstwert) und Uhrzeit der Messung14:00:00 Uhr-5.80 °C
Taupunkt (Minimum / Tiefstwert) und Uhrzeit der Messung16:45:00-10.10 °C
Anzahl der automatisch eingelesenen Messwerte 96

Detaillierte Wetter- und Klima- Messwerte für den 22.01.2017 in Holzhau im Erzgebirge (630m ü.NN)
ZeitTemperaturLuftdruckRel. LuftfeuchteWindWindrichtungWindchillTaupunktNiederschlag l/m²
23:45:00-5.70 °C1019.70 hPa80.00 %5.40 km/hSSW-8.30 °C-8.90 °C 
23:30:00-5.80 °C1019.60 hPa79.00 %1.80 km/hSSO-5.80 °C-9.20 °C 
23:15:00-5.70 °C1019.70 hPa79.00 %-9.10 °C 
23:00:00-5.50 °C1019.70 hPa79.00 %-8.90 °C 
22:45:00-5.60 °C1019.70 hPa79.00 %-9.00 °C 
22:30:00-5.60 °C1019.70 hPa79.00 %-9.00 °C 
22:15:00-5.80 °C1019.80 hPa79.00 %-9.20 °C 
22:00:00-5.60 °C1019.50 hPa79.00 %-9.00 °C 
21:45:00-5.70 °C1019.50 hPa78.00 %-9.30 °C 
21:30:00-5.70 °C1019.60 hPa77.00 %-9.50 °C 
21:15:00-5.50 °C1019.50 hPa76.00 %-9.50 °C 
21:00:00-5.00 °C1019.60 hPa76.00 %-9.00 °C 
20:45:00-4.80 °C1019.40 hPa76.00 %-8.80 °C 
20:30:00-4.70 °C1019.40 hPa76.00 %-8.70 °C 
20:15:00-4.70 °C1019.40 hPa76.00 %-8.70 °C 
20:00:00-4.90 °C1019.50 hPa76.00 %-8.90 °C 
19:45:00-5.10 °C1019.70 hPa76.00 %2.52 km/hS-5.10 °C-9.10 °C 
19:30:00-5.10 °C1019.80 hPa75.00 %-9.30 °C 
19:15:00-4.80 °C1020.00 hPa74.00 %-9.20 °C 
19:00:00-4.70 °C1020.30 hPa74.00 %6.84 km/hSSO-7.80 °C-9.10 °C 
18:45:00-4.70 °C1020.30 hPa74.00 %8.28 km/hS-8.40 °C-9.10 °C 
18:30:00-4.90 °C1020.40 hPa74.00 %15.84 km/hSO-10.60 °C-9.30 °C 
18:15:00-5.10 °C1020.30 hPa74.00 %8.64 km/hSO-9.00 °C-9.50 °C 
18:00:00-5.10 °C1020.50 hPa73.00 %1.08 km/hS-5.10 °C-9.70 °C 
17:45:00-5.10 °C1020.60 hPa72.00 %-9.90 °C 
17:30:00-4.90 °C1020.60 hPa72.00 %10.08 km/hSW-9.20 °C-9.70 °C 
17:15:00-4.70 °C1020.50 hPa71.00 %5.76 km/hS-7.30 °C-9.70 °C 
17:00:00-4.50 °C1020.50 hPa69.00 %3.24 km/hO-4.50 °C-9.90 °C 
16:45:00-4.10 °C1020.80 hPa66.00 %2.16 km/hO-4.10 °C-10.10 °C 
16:30:00-3.60 °C1020.80 hPa64.00 %1.44 km/hNO-3.60 °C-10.10 °C 
16:15:00-3.10 °C1021.00 hPa62.00 %4.68 km/hOSO-3.10 °C-10.10 °C 
16:00:00-2.20 °C1021.20 hPa60.00 %3.60 km/hNNO-2.20 °C-9.70 °C 
15:45:00-1.20 °C1021.20 hPa58.00 %-9.20 °C 
15:30:00-0.10 °C1021.10 hPa57.00 %-8.50 °C 
15:15:000.30 °C1021.30 hPa56.00 %-7.40 °C 
15:00:000.90 °C1021.30 hPa55.00 %8.28 km/hSSW-1.80 °C-7.10 °C 
14:45:000.90 °C1021.50 hPa55.00 %5.76 km/hS-0.90 °C-7.10 °C 
14:30:001.10 °C1021.50 hPa54.00 %5.40 km/hSSO-0.50 °C-7.20 °C 
14:15:001.80 °C1021.40 hPa54.00 %-6.50 °C 
14:00:002.30 °C1021.40 hPa55.00 %-5.80 °C 
13:45:001.90 °C1021.40 hPa54.00 %-6.40 °C 
13:30:001.60 °C1021.40 hPa55.00 %3.24 km/hSO1.60 °C-6.40 °C 
13:15:001.30 °C1021.60 hPa55.00 %1.80 km/hSO1.30 °C-6.70 °C 
13:00:001.10 °C1021.70 hPa55.00 %-6.90 °C 
12:45:001.30 °C1021.70 hPa55.00 %2.52 km/hWSW1.30 °C-6.70 °C 
12:30:001.40 °C1021.50 hPa55.00 %10.44 km/hS-1.80 °C-6.60 °C 
12:15:001.30 °C1021.50 hPa56.00 %1.80 km/hW1.30 °C-6.50 °C 
12:00:000.80 °C1021.80 hPa58.00 %5.04 km/hS-0.70 °C-6.50 °C 
11:45:000.60 °C1021.90 hPa57.00 %7.56 km/hO-1.90 °C-6.90 °C 
11:30:000.60 °C1022.10 hPa57.00 %7.20 km/hS-1.80 °C-6.90 °C 
11:15:000.40 °C1022.30 hPa58.00 %6.84 km/hS-1.90 °C-6.90 °C 
11:00:000.10 °C1022.30 hPa59.00 %-6.90 °C 
10:45:00-0.10 °C1022.30 hPa60.00 %9.00 km/hSSO-3.20 °C-7.70 °C 
10:30:00-0.20 °C1022.40 hPa61.00 %11.16 km/hSSO-3.80 °C-7.60 °C 
10:15:00-0.60 °C1022.40 hPa62.00 %5.76 km/hS-2.60 °C-7.70 °C 
10:00:00-0.90 °C1022.70 hPa63.00 %5.40 km/hS-2.80 °C-7.80 °C 
09:45:00-1.60 °C1022.40 hPa65.00 %3.24 km/hSW-1.60 °C-8.00 °C 
09:30:00-2.10 °C1022.50 hPa66.00 %7.20 km/hS-4.90 °C-8.20 °C 
09:15:00-2.40 °C1022.30 hPa67.00 %8.28 km/hSSW-5.70 °C-8.30 °C 
09:00:00-2.80 °C1022.30 hPa68.00 %1.08 km/hSO-2.80 °C-8.50 °C 
08:45:00-3.10 °C1022.50 hPa68.00 %-8.80 °C 
08:30:00-3.20 °C1022.40 hPa68.00 %1.80 km/hSSW-3.20 °C-8.90 °C 
08:15:00-3.40 °C1022.40 hPa68.00 %14.04 km/hSSW-8.40 °C-9.10 °C 
08:00:00-3.80 °C1022.90 hPa69.00 %2.88 km/hSSO-3.80 °C-9.20 °C 
07:45:00-3.90 °C1022.90 hPa69.00 %9.00 km/hS-7.70 °C-9.30 °C 
07:30:00-3.90 °C1022.90 hPa69.00 %10.80 km/hS-8.20 °C-9.30 °C 
07:15:00-3.80 °C1023.00 hPa69.00 %11.16 km/hS-8.20 °C-9.20 °C 
07:00:00-3.50 °C1023.00 hPa69.00 %11.52 km/hSSW-7.90 °C-8.90 °C 
06:45:00-3.10 °C1022.90 hPa68.00 %8.28 km/hSSW-6.50 °C-8.80 °C 
06:30:00-3.00 °C1023.10 hPa68.00 %5.04 km/hSO-5.00 °C-8.70 °C 
06:15:00-2.70 °C1023.10 hPa67.00 %2.52 km/hSSO-2.70 °C-8.60 °C 
06:00:00-2.70 °C1023.00 hPa68.00 %9.72 km/hSO-6.50 °C-8.40 °C 
05:45:00-2.50 °C1023.00 hPa67.00 %5.04 km/hS-4.40 °C-8.40 °C 
05:30:00-2.40 °C1022.90 hPa67.00 %11.16 km/hSSW-6.50 °C-8.30 °C 
05:15:00-2.20 °C1022.90 hPa66.00 %5.76 km/hOSO-4.40 °C-8.30 °C 
05:00:00-2.10 °C1023.00 hPa65.00 %14.76 km/hS-7.00 °C-8.50 °C 
04:45:00-1.90 °C1023.00 hPa65.00 %-8.30 °C 
04:30:00-1.80 °C1023.00 hPa65.00 %10.08 km/hS-5.50 °C-8.20 °C 
04:15:00-1.60 °C1022.90 hPa65.00 %4.32 km/hO-1.60 °C-8.00 °C 
04:00:00-1.70 °C1023.10 hPa66.00 %1.44 km/hSO-1.70 °C-7.90 °C 
03:45:00-1.60 °C1023.20 hPa66.00 %-7.80 °C 
03:30:00-1.40 °C1023.20 hPa65.00 %8.28 km/hSO-4.50 °C-7.80 °C 
03:15:00-1.30 °C1023.10 hPa64.00 %10.80 km/hSSO-5.10 °C-7.90 °C 
03:00:00-1.20 °C1023.40 hPa63.00 %10.44 km/hSSO-4.90 °C-8.10 °C 
02:45:00-1.40 °C1023.50 hPa64.00 %12.96 km/hSSO-5.70 °C-8.00 °C 
02:30:00-1.50 °C1023.70 hPa65.00 %15.12 km/hS-6.30 °C-7.90 °C 
02:15:00-1.60 °C1023.70 hPa66.00 %16.92 km/hSO-6.70 °C-7.80 °C 
02:00:00-1.60 °C1023.70 hPa65.00 %7.92 km/hS-4.60 °C-8.00 °C 
01:45:00-1.70 °C1024.00 hPa65.00 %7.56 km/hS-4.60 °C-8.10 °C 
01:30:00-1.40 °C1023.90 hPa62.00 %5.04 km/hSSW-3.20 °C-8.50 °C 
01:15:00-1.80 °C1024.20 hPa63.00 %9.36 km/hSSO-5.30 °C-8.60 °C 
01:00:00-2.40 °C1024.20 hPa67.00 %11.16 km/hSSO-6.50 °C-8.30 °C 
00:45:00-3.20 °C1024.30 hPa74.00 %10.08 km/hSW-7.20 °C-7.60 °C 
00:30:00-3.60 °C1024.20 hPa76.00 %3.60 km/hS-3.60 °C-7.60 °C 
00:15:00-3.80 °C1024.60 hPa79.00 %-7.30 °C 
00:00:00-3.90 °C1024.80 hPa82.00 %-6.80 °C 

Permanenter Link zu dieser Seite: Wetter im Erzgebirge am 22.01.2017
Performance-Info: Die Erstellung der Seite / Statistik(en) / Tabelle(n) erforderte 5 Datenbankserver-Abfrage(n) und dauerte 138 Millisekunden. (Dieser Messwert ist von der Gesamt-Auslastung des Servers abhängig.)
Erzgebirge - Wetter | Erzgebirge - Wetter (Mobilgeräte) | Komplette Klimadatenbank